sensor_id;sensor_type;location;lat;lon;timestamp;P1;P2;P0
73517;PMS5003;61766;60.318;25.044;2023-04-24T00:01:34;10;10;
73517;PMS5003;61766;60.318;25.044;2023-04-24T00:03:59;9;9;
73517;PMS5003;61766;60.318;25.044;2023-04-24T00:06:24;9;9;
73517;PMS5003;61766;60.318;25.044;2023-04-24T00:08:49;9;9;
73517;PMS5003;61766;60.318;25.044;2023-04-24T00:11:14;11;11;
73517;PMS5003;61766;60.318;25.044;2023-04-24T00:13:40;12;12;
73517;PMS5003;61766;60.318;25.044;2023-04-24T00:16:06;8;8;
73517;PMS5003;61766;60.318;25.044;2023-04-24T00:18:31;6;6;
73517;PMS5003;61766;60.318;25.044;2023-04-24T00:20:57;8;8;
73517;PMS5003;61766;60.318;25.044;2023-04-24T00:23:22;9;8;
73517;PMS5003;61766;60.318;25.044;2023-04-24T00:25:47;10;10;
73517;PMS5003;61766;60.318;25.044;2023-04-24T00:28:12;11;9;
73517;PMS5003;61766;60.318;25.044;2023-04-24T00:30:37;9;9;
73517;PMS5003;61766;60.318;25.044;2023-04-24T00:33:02;14;13;
73517;PMS5003;61766;60.318;25.044;2023-04-24T00:35:27;10;10;
73517;PMS5003;61766;60.318;25.044;2023-04-24T00:37:53;9;9;
73517;PMS5003;61766;60.318;25.044;2023-04-24T00:40:19;9;9;
73517;PMS5003;61766;60.318;25.044;2023-04-24T00:42:44;11;11;
73517;PMS5003;61766;60.318;25.044;2023-04-24T00:45:10;11;11;
73517;PMS5003;61766;60.318;25.044;2023-04-24T00:47:35;11;11;
73517;PMS5003;61766;60.318;25.044;2023-04-24T00:50:01;12;12;
73517;PMS5003;61766;60.318;25.044;2023-04-24T00:52:26;9;9;
73517;PMS5003;61766;60.318;25.044;2023-04-24T00:54:51;14;14;
73517;PMS5003;61766;60.318;25.044;2023-04-24T00:57:17;12;12;
73517;PMS5003;61766;60.318;25.044;2023-04-24T00:59:42;12;12;
73517;PMS5003;61766;60.318;25.044;2023-04-24T01:02:07;11;11;
73517;PMS5003;61766;60.318;25.044;2023-04-24T01:04:32;13;12;
73517;PMS5003;61766;60.318;25.044;2023-04-24T01:06:58;14;14;
73517;PMS5003;61766;60.318;25.044;2023-04-24T01:09:23;13;13;
73517;PMS5003;61766;60.318;25.044;2023-04-24T01:11:48;12;11;
73517;PMS5003;61766;60.318;25.044;2023-04-24T01:14:14;13;13;
73517;PMS5003;61766;60.318;25.044;2023-04-24T01:16:39;12;12;
73517;PMS5003;61766;60.318;25.044;2023-04-24T01:19:04;12;11;
73517;PMS5003;61766;60.318;25.044;2023-04-24T01:21:29;10;10;
73517;PMS5003;61766;60.318;25.044;2023-04-24T01:23:54;13;13;
73517;PMS5003;61766;60.318;25.044;2023-04-24T01:26:19;13;12;
73517;PMS5003;61766;60.318;25.044;2023-04-24T01:28:44;12;11;
73517;PMS5003;61766;60.318;25.044;2023-04-24T01:31:09;12;12;
73517;PMS5003;61766;60.318;25.044;2023-04-24T01:33:34;11;11;
73517;PMS5003;61766;60.318;25.044;2023-04-24T01:35:59;14;13;
73517;PMS5003;61766;60.318;25.044;2023-04-24T01:38:24;14;12;
73517;PMS5003;61766;60.318;25.044;2023-04-24T01:40:50;14;13;
73517;PMS5003;61766;60.318;25.044;2023-04-24T01:43:15;14;14;
73517;PMS5003;61766;60.318;25.044;2023-04-24T01:45:40;16;16;
73517;PMS5003;61766;60.318;25.044;2023-04-24T01:48:05;13;13;
73517;PMS5003;61766;60.318;25.044;2023-04-24T01:50:30;12;11;
73517;PMS5003;61766;60.318;25.044;2023-04-24T01:52:55;14;13;
73517;PMS5003;61766;60.318;25.044;2023-04-24T01:55:20;13;13;
73517;PMS5003;61766;60.318;25.044;2023-04-24T01:57:46;12;12;
73517;PMS5003;61766;60.318;25.044;2023-04-24T02:00:11;14;13;
73517;PMS5003;61766;60.318;25.044;2023-04-24T02:02:36;15;15;
73517;PMS5003;61766;60.318;25.044;2023-04-24T02:05:01;15;15;
73517;PMS5003;61766;60.318;25.044;2023-04-24T02:07:26;12;12;
73517;PMS5003;61766;60.318;25.044;2023-04-24T02:09:52;15;15;
73517;PMS5003;61766;60.318;25.044;2023-04-24T02:12:17;13;13;
73517;PMS5003;61766;60.318;25.044;2023-04-24T02:14:43;11;11;
73517;PMS5003;61766;60.318;25.044;2023-04-24T02:17:08;17;14;
73517;PMS5003;61766;60.318;25.044;2023-04-24T02:19:34;14;13;
73517;PMS5003;61766;60.318;25.044;2023-04-24T02:21:59;16;16;
73517;PMS5003;61766;60.318;25.044;2023-04-24T02:24:25;14;13;
73517;PMS5003;61766;60.318;25.044;2023-04-24T02:26:50;18;16;
73517;PMS5003;61766;60.318;25.044;2023-04-24T02:29:15;14;14;
73517;PMS5003;61766;60.318;25.044;2023-04-24T02:31:40;18;17;
73517;PMS5003;61766;60.318;25.044;2023-04-24T02:34:06;14;13;
73517;PMS5003;61766;60.318;25.044;2023-04-24T02:36:31;16;15;
73517;PMS5003;61766;60.318;25.044;2023-04-24T02:38:56;15;15;
73517;PMS5003;61766;60.318;25.044;2023-04-24T02:41:21;15;14;
73517;PMS5003;61766;60.318;25.044;2023-04-24T02:43:47;17;16;
73517;PMS5003;61766;60.318;25.044;2023-04-24T02:46:13;18;18;
73517;PMS5003;61766;60.318;25.044;2023-04-24T02:48:38;16;16;
73517;PMS5003;61766;60.318;25.044;2023-04-24T02:51:04;17;17;
73517;PMS5003;61766;60.318;25.044;2023-04-24T02:53:29;14;14;
73517;PMS5003;61766;60.318;25.044;2023-04-24T02:55:55;17;15;
73517;PMS5003;61766;60.318;25.044;2023-04-24T02:58:20;16;16;
73517;PMS5003;61766;60.318;25.044;2023-04-24T03:00:46;16;16;
73517;PMS5003;61766;60.318;25.044;2023-04-24T03:03:11;17;16;
73517;PMS5003;61766;60.318;25.044;2023-04-24T03:05:37;19;19;
73517;PMS5003;61766;60.318;25.044;2023-04-24T03:08:02;16;15;
73517;PMS5003;61766;60.318;25.044;2023-04-24T03:10:28;17;16;
73517;PMS5003;61766;60.318;25.044;2023-04-24T03:12:53;19;17;
73517;PMS5003;61766;60.318;25.044;2023-04-24T03:15:18;18;16;
73517;PMS5003;61766;60.318;25.044;2023-04-24T03:17:44;16;16;
73517;PMS5003;61766;60.318;25.044;2023-04-24T03:20:08;20;20;
73517;PMS5003;61766;60.318;25.044;2023-04-24T03:22:33;17;17;
73517;PMS5003;61766;60.318;25.044;2023-04-24T03:24:59;14;14;
73517;PMS5003;61766;60.318;25.044;2023-04-24T03:27:24;17;17;
73517;PMS5003;61766;60.318;25.044;2023-04-24T03:29:49;14;14;
73517;PMS5003;61766;60.318;25.044;2023-04-24T03:32:14;24;21;
73517;PMS5003;61766;60.318;25.044;2023-04-24T03:34:40;21;20;
73517;PMS5003;61766;60.318;25.044;2023-04-24T03:37:05;15;15;
73517;PMS5003;61766;60.318;25.044;2023-04-24T03:39:30;17;15;
73517;PMS5003;61766;60.318;25.044;2023-04-24T03:41:56;22;22;
73517;PMS5003;61766;60.318;25.044;2023-04-24T03:44:21;17;16;
73517;PMS5003;61766;60.318;25.044;2023-04-24T03:46:47;16;16;
73517;PMS5003;61766;60.318;25.044;2023-04-24T03:49:12;14;14;
73517;PMS5003;61766;60.318;25.044;2023-04-24T03:51:38;15;15;
73517;PMS5003;61766;60.318;25.044;2023-04-24T03:54:03;16;16;
73517;PMS5003;61766;60.318;25.044;2023-04-24T03:56:28;16;15;
73517;PMS5003;61766;60.318;25.044;2023-04-24T03:58:53;19;17;
73517;PMS5003;61766;60.318;25.044;2023-04-24T04:01:18;13;13;
73517;PMS5003;61766;60.318;25.044;2023-04-24T04:03:44;17;17;
73517;PMS5003;61766;60.318;25.044;2023-04-24T04:06:09;21;20;
73517;PMS5003;61766;60.318;25.044;2023-04-24T04:08:35;21;19;
73517;PMS5003;61766;60.318;25.044;2023-04-24T04:11:00;19;18;
73517;PMS5003;61766;60.318;25.044;2023-04-24T04:13:26;24;24;
73517;PMS5003;61766;60.318;25.044;2023-04-24T04:15:51;18;18;
73517;PMS5003;61766;60.318;25.044;2023-04-24T04:18:17;20;19;
73517;PMS5003;61766;60.318;25.044;2023-04-24T04:20:42;20;19;
73517;PMS5003;61766;60.318;25.044;2023-04-24T04:23:07;21;21;
73517;PMS5003;61766;60.318;25.044;2023-04-24T04:25:32;23;23;
73517;PMS5003;61766;60.318;25.044;2023-04-24T04:27:57;23;22;
73517;PMS5003;61766;60.318;25.044;2023-04-24T04:30:23;24;23;
73517;PMS5003;61766;60.318;25.044;2023-04-24T04:32:48;25;24;
73517;PMS5003;61766;60.318;25.044;2023-04-24T04:35:13;22;22;
73517;PMS5003;61766;60.318;25.044;2023-04-24T04:37:38;23;22;
73517;PMS5003;61766;60.318;25.044;2023-04-24T04:40:04;28;26;
73517;PMS5003;61766;60.318;25.044;2023-04-24T04:42:29;26;26;
73517;PMS5003;61766;60.318;25.044;2023-04-24T04:44:55;24;24;
73517;PMS5003;61766;60.318;25.044;2023-04-24T04:47:21;29;29;
73517;PMS5003;61766;60.318;25.044;2023-04-24T04:49:45;30;28;
73517;PMS5003;61766;60.318;25.044;2023-04-24T04:52:10;28;28;
73517;PMS5003;61766;60.318;25.044;2023-04-24T04:54:36;30;30;
73517;PMS5003;61766;60.318;25.044;2023-04-24T04:57:01;36;33;
73517;PMS5003;61766;60.318;25.044;2023-04-24T04:59:27;38;37;
73517;PMS5003;61766;60.318;25.044;2023-04-24T05:01:52;37;37;
73517;PMS5003;61766;60.318;25.044;2023-04-24T05:04:18;37;37;
73517;PMS5003;61766;60.318;25.044;2023-04-24T05:06:43;33;33;
73517;PMS5003;61766;60.318;25.044;2023-04-24T05:09:08;39;38;
73517;PMS5003;61766;60.318;25.044;2023-04-24T05:11:34;34;33;
73517;PMS5003;61766;60.318;25.044;2023-04-24T05:14:00;41;39;
73517;PMS5003;61766;60.318;25.044;2023-04-24T05:16:25;44;42;
73517;PMS5003;61766;60.318;25.044;2023-04-24T05:18:51;45;44;
73517;PMS5003;61766;60.318;25.044;2023-04-24T05:21:16;41;41;
73517;PMS5003;61766;60.318;25.044;2023-04-24T05:23:42;33;33;
73517;PMS5003;61766;60.318;25.044;2023-04-24T05:26:07;38;36;
73517;PMS5003;61766;60.318;25.044;2023-04-24T05:28:33;39;36;
73517;PMS5003;61766;60.318;25.044;2023-04-24T05:30:59;40;38;
73517;PMS5003;61766;60.318;25.044;2023-04-24T05:33:24;41;40;
73517;PMS5003;61766;60.318;25.044;2023-04-24T05:35:49;37;37;
73517;PMS5003;61766;60.318;25.044;2023-04-24T05:38:15;39;39;
73517;PMS5003;61766;60.318;25.044;2023-04-24T05:40:40;37;35;
73517;PMS5003;61766;60.318;25.044;2023-04-24T05:43:06;43;42;
73517;PMS5003;61766;60.318;25.044;2023-04-24T05:45:31;40;39;
73517;PMS5003;61766;60.318;25.044;2023-04-24T05:47:56;37;36;
73517;PMS5003;61766;60.318;25.044;2023-04-24T05:50:22;43;43;
73517;PMS5003;61766;60.318;25.044;2023-04-24T05:52:47;37;37;
73517;PMS5003;61766;60.318;25.044;2023-04-24T05:55:12;40;39;
73517;PMS5003;61766;60.318;25.044;2023-04-24T05:57:38;43;43;
73517;PMS5003;61766;60.318;25.044;2023-04-24T06:00:04;40;39;
73517;PMS5003;61766;60.318;25.044;2023-04-24T06:02:28;42;40;
73517;PMS5003;61766;60.318;25.044;2023-04-24T06:04:54;37;37;
73517;PMS5003;61766;60.318;25.044;2023-04-24T06:07:19;38;38;
73517;PMS5003;61766;60.318;25.044;2023-04-24T06:09:45;43;41;
73517;PMS5003;61766;60.318;25.044;2023-04-24T06:12:11;41;39;
73517;PMS5003;61766;60.318;25.044;2023-04-24T06:14:37;38;37;
73517;PMS5003;61766;60.318;25.044;2023-04-24T06:17:02;41;41;
73517;PMS5003;61766;60.318;25.044;2023-04-24T06:19:27;42;42;
73517;PMS5003;61766;60.318;25.044;2023-04-24T06:21:53;37;36;
73517;PMS5003;61766;60.318;25.044;2023-04-24T06:24:18;39;38;
73517;PMS5003;61766;60.318;25.044;2023-04-24T06:26:43;34;33;
73517;PMS5003;61766;60.318;25.044;2023-04-24T06:29:09;33;32;
73517;PMS5003;61766;60.318;25.044;2023-04-24T06:31:34;34;34;
73517;PMS5003;61766;60.318;25.044;2023-04-24T06:33:59;34;32;
73517;PMS5003;61766;60.318;25.044;2023-04-24T06:36:25;37;37;
73517;PMS5003;61766;60.318;25.044;2023-04-24T06:38:50;34;34;
73517;PMS5003;61766;60.318;25.044;2023-04-24T06:41:16;41;37;
73517;PMS5003;61766;60.318;25.044;2023-04-24T06:43:42;37;35;
73517;PMS5003;61766;60.318;25.044;2023-04-24T06:46:07;34;34;
73517;PMS5003;61766;60.318;25.044;2023-04-24T06:48:32;34;34;
73517;PMS5003;61766;60.318;25.044;2023-04-24T06:50:57;40;38;
73517;PMS5003;61766;60.318;25.044;2023-04-24T06:53:23;31;31;
73517;PMS5003;61766;60.318;25.044;2023-04-24T06:55:48;30;29;
73517;PMS5003;61766;60.318;25.044;2023-04-24T06:58:14;31;30;
73517;PMS5003;61766;60.318;25.044;2023-04-24T07:00:40;38;35;
73517;PMS5003;61766;60.318;25.044;2023-04-24T07:03:05;32;31;
73517;PMS5003;61766;60.318;25.044;2023-04-24T07:05:30;34;34;
73517;PMS5003;61766;60.318;25.044;2023-04-24T07:07:56;32;31;
73517;PMS5003;61766;60.318;25.044;2023-04-24T07:10:21;34;34;
73517;PMS5003;61766;60.318;25.044;2023-04-24T07:12:46;31;30;
73517;PMS5003;61766;60.318;25.044;2023-04-24T07:15:12;34;34;
73517;PMS5003;61766;60.318;25.044;2023-04-24T07:17:37;37;35;
73517;PMS5003;61766;60.318;25.044;2023-04-24T07:20:03;29;27;
73517;PMS5003;61766;60.318;25.044;2023-04-24T07:22:28;32;31;
73517;PMS5003;61766;60.318;25.044;2023-04-24T07:24:53;28;27;
73517;PMS5003;61766;60.318;25.044;2023-04-24T07:27:19;28;27;
73517;PMS5003;61766;60.318;25.044;2023-04-24T07:29:44;24;24;
73517;PMS5003;61766;60.318;25.044;2023-04-24T07:32:10;33;31;
73517;PMS5003;61766;60.318;25.044;2023-04-24T07:34:35;32;31;
73517;PMS5003;61766;60.318;25.044;2023-04-24T07:37:00;31;30;
73517;PMS5003;61766;60.318;25.044;2023-04-24T07:39:26;28;27;
73517;PMS5003;61766;60.318;25.044;2023-04-24T07:41:51;27;27;
73517;PMS5003;61766;60.318;25.044;2023-04-24T07:44:17;33;32;
73517;PMS5003;61766;60.318;25.044;2023-04-24T07:46:42;26;25;
73517;PMS5003;61766;60.318;25.044;2023-04-24T07:49:08;30;29;
73517;PMS5003;61766;60.318;25.044;2023-04-24T07:51:34;34;33;
73517;PMS5003;61766;60.318;25.044;2023-04-24T07:53:59;27;27;
73517;PMS5003;61766;60.318;25.044;2023-04-24T07:56:25;32;32;
73517;PMS5003;61766;60.318;25.044;2023-04-24T07:58:51;35;34;
73517;PMS5003;61766;60.318;25.044;2023-04-24T08:01:16;35;34;
73517;PMS5003;61766;60.318;25.044;2023-04-24T08:03:42;27;27;
73517;PMS5003;61766;60.318;25.044;2023-04-24T08:06:08;29;29;
73517;PMS5003;61766;60.318;25.044;2023-04-24T08:08:33;25;25;
73517;PMS5003;61766;60.318;25.044;2023-04-24T08:10:58;28;28;
73517;PMS5003;61766;60.318;25.044;2023-04-24T08:13:24;31;30;
73517;PMS5003;61766;60.318;25.044;2023-04-24T08:15:49;27;27;
73517;PMS5003;61766;60.318;25.044;2023-04-24T08:18:14;27;26;
73517;PMS5003;61766;60.318;25.044;2023-04-24T08:20:40;27;27;
73517;PMS5003;61766;60.318;25.044;2023-04-24T08:23:05;21;21;
73517;PMS5003;61766;60.318;25.044;2023-04-24T08:25:31;24;23;
73517;PMS5003;61766;60.318;25.044;2023-04-24T08:27:57;27;27;
73517;PMS5003;61766;60.318;25.044;2023-04-24T08:30:22;28;28;
73517;PMS5003;61766;60.318;25.044;2023-04-24T08:32:47;22;19;
73517;PMS5003;61766;60.318;25.044;2023-04-24T08:35:13;18;18;
73517;PMS5003;61766;60.318;25.044;2023-04-24T08:37:39;22;22;
73517;PMS5003;61766;60.318;25.044;2023-04-24T08:40:06;17;17;
73517;PMS5003;61766;60.318;25.044;2023-04-24T08:42:30;18;17;
73517;PMS5003;61766;60.318;25.044;2023-04-24T08:44:55;17;16;
73517;PMS5003;61766;60.318;25.044;2023-04-24T08:47:21;14;14;
73517;PMS5003;61766;60.318;25.044;2023-04-24T08:49:47;13;13;
73517;PMS5003;61766;60.318;25.044;2023-04-24T08:52:12;11;11;
73517;PMS5003;61766;60.318;25.044;2023-04-24T08:54:38;9;9;
73517;PMS5003;61766;60.318;25.044;2023-04-24T08:57:04;11;10;
73517;PMS5003;61766;60.318;25.044;2023-04-24T08:59:30;12;12;
73517;PMS5003;61766;60.318;25.044;2023-04-24T09:01:56;12;12;
73517;PMS5003;61766;60.318;25.044;2023-04-24T09:04:21;12;12;
73517;PMS5003;61766;60.318;25.044;2023-04-24T09:06:47;12;12;
73517;PMS5003;61766;60.318;25.044;2023-04-24T09:09:13;13;13;
73517;PMS5003;61766;60.318;25.044;2023-04-24T09:11:39;10;10;
73517;PMS5003;61766;60.318;25.044;2023-04-24T09:14:04;11;11;
73517;PMS5003;61766;60.318;25.044;2023-04-24T09:16:30;12;12;
73517;PMS5003;61766;60.318;25.044;2023-04-24T09:18:55;9;9;
73517;PMS5003;61766;60.318;25.044;2023-04-24T09:21:21;20;20;
73517;PMS5003;61766;60.318;25.044;2023-04-24T09:23:46;29;28;
73517;PMS5003;61766;60.318;25.044;2023-04-24T09:26:11;27;27;
73517;PMS5003;61766;60.318;25.044;2023-04-24T09:28:38;32;31;
73517;PMS5003;61766;60.318;25.044;2023-04-24T09:31:03;26;26;
73517;PMS5003;61766;60.318;25.044;2023-04-24T09:33:29;28;27;
73517;PMS5003;61766;60.318;25.044;2023-04-24T09:35:53;10;10;
73517;PMS5003;61766;60.318;25.044;2023-04-24T09:38:19;21;21;
73517;PMS5003;61766;60.318;25.044;2023-04-24T09:40:44;25;24;
73517;PMS5003;61766;60.318;25.044;2023-04-24T09:43:10;21;21;
73517;PMS5003;61766;60.318;25.044;2023-04-24T09:45:36;26;25;
73517;PMS5003;61766;60.318;25.044;2023-04-24T09:48:01;27;27;
73517;PMS5003;61766;60.318;25.044;2023-04-24T09:50:26;26;25;
73517;PMS5003;61766;60.318;25.044;2023-04-24T09:52:57;27;26;
73517;PMS5003;61766;60.318;25.044;2023-04-24T09:55:19;34;32;
73517;PMS5003;61766;60.318;25.044;2023-04-24T09:57:47;23;23;
73517;PMS5003;61766;60.318;25.044;2023-04-24T10:00:10;29;28;
73517;PMS5003;61766;60.318;25.044;2023-04-24T10:02:34;24;24;
73517;PMS5003;61766;60.318;25.044;2023-04-24T10:04:59;29;26;
73517;PMS5003;61766;60.318;25.044;2023-04-24T10:07:25;26;24;
73517;PMS5003;61766;60.318;25.044;2023-04-24T10:09:50;31;28;
73517;PMS5003;61766;60.318;25.044;2023-04-24T10:12:16;25;24;
73517;PMS5003;61766;60.318;25.044;2023-04-24T10:14:41;20;20;
73517;PMS5003;61766;60.318;25.044;2023-04-24T10:17:07;21;20;
73517;PMS5003;61766;60.318;25.044;2023-04-24T10:19:32;23;23;
73517;PMS5003;61766;60.318;25.044;2023-04-24T10:21:58;21;20;
73517;PMS5003;61766;60.318;25.044;2023-04-24T10:24:24;28;26;
73517;PMS5003;61766;60.318;25.044;2023-04-24T10:26:49;24;24;
73517;PMS5003;61766;60.318;25.044;2023-04-24T10:29:18;22;21;
73517;PMS5003;61766;60.318;25.044;2023-04-24T10:31:39;19;19;
73517;PMS5003;61766;60.318;25.044;2023-04-24T10:34:05;15;15;
73517;PMS5003;61766;60.318;25.044;2023-04-24T10:36:30;14;14;
73517;PMS5003;61766;60.318;25.044;2023-04-24T10:38:56;8;8;
73517;PMS5003;61766;60.318;25.044;2023-04-24T10:41:22;6;6;
73517;PMS5003;61766;60.318;25.044;2023-04-24T10:43:47;5;5;
73517;PMS5003;61766;60.318;25.044;2023-04-24T10:46:16;15;15;
73517;PMS5003;61766;60.318;25.044;2023-04-24T10:48:42;14;14;
73517;PMS5003;61766;60.318;25.044;2023-04-24T10:51:04;11;11;
73517;PMS5003;61766;60.318;25.044;2023-04-24T10:53:30;6;6;
73517;PMS5003;61766;60.318;25.044;2023-04-24T10:55:58;7;7;
73517;PMS5003;61766;60.318;25.044;2023-04-24T10:58:21;12;12;
73517;PMS5003;61766;60.318;25.044;2023-04-24T11:00:55;18;17;
73517;PMS5003;61766;60.318;25.044;2023-04-24T11:05:49;6;6;
73517;PMS5003;61766;60.318;25.044;2023-04-24T11:08:10;4;4;
73517;PMS5003;61766;60.318;25.044;2023-04-24T11:10:30;6;5;
73517;PMS5003;61766;60.318;25.044;2023-04-24T11:12:55;11;11;
73517;PMS5003;61766;60.318;25.044;2023-04-24T11:15:21;18;15;
73517;PMS5003;61766;60.318;25.044;2023-04-24T11:17:47;13;12;
73517;PMS5003;61766;60.318;25.044;2023-04-24T11:20:16;13;13;
73517;PMS5003;61766;60.318;25.044;2023-04-24T11:22:38;11;11;
73517;PMS5003;61766;60.318;25.044;2023-04-24T11:25:04;10;10;
73517;PMS5003;61766;60.318;25.044;2023-04-24T11:27:29;8;7;
73517;PMS5003;61766;60.318;25.044;2023-04-24T11:29:59;10;10;
73517;PMS5003;61766;60.318;25.044;2023-04-24T11:32:24;17;16;
73517;PMS5003;61766;60.318;25.044;2023-04-24T11:34:46;9;9;
73517;PMS5003;61766;60.318;25.044;2023-04-24T11:37:11;5;5;
73517;PMS5003;61766;60.318;25.044;2023-04-24T11:39:37;5;4;
73517;PMS5003;61766;60.318;25.044;2023-04-24T11:42:03;5;5;
73517;PMS5003;61766;60.318;25.044;2023-04-24T11:44:28;5;5;
73517;PMS5003;61766;60.318;25.044;2023-04-24T11:46:55;12;11;
73517;PMS5003;61766;60.318;25.044;2023-04-24T11:49:20;12;12;
73517;PMS5003;61766;60.318;25.044;2023-04-24T11:51:46;14;13;
73517;PMS5003;61766;60.318;25.044;2023-04-24T11:54:11;12;11;
73517;PMS5003;61766;60.318;25.044;2023-04-24T11:56:37;10;10;
73517;PMS5003;61766;60.318;25.044;2023-04-24T11:59:03;13;12;
73517;PMS5003;61766;60.318;25.044;2023-04-24T12:01:28;12;12;
73517;PMS5003;61766;60.318;25.044;2023-04-24T12:03:59;13;12;
73517;PMS5003;61766;60.318;25.044;2023-04-24T12:06:19;11;11;
73517;PMS5003;61766;60.318;25.044;2023-04-24T12:08:46;12;12;
73517;PMS5003;61766;60.318;25.044;2023-04-24T12:11:11;13;13;
73517;PMS5003;61766;60.318;25.044;2023-04-24T12:13:36;12;11;
73517;PMS5003;61766;60.318;25.044;2023-04-24T12:16:03;12;11;
73517;PMS5003;61766;60.318;25.044;2023-04-24T12:18:28;10;10;
73517;PMS5003;61766;60.318;25.044;2023-04-24T12:20:53;12;12;
73517;PMS5003;61766;60.318;25.044;2023-04-24T12:25:45;13;12;
73517;PMS5003;61766;60.318;25.044;2023-04-24T12:28:11;15;15;
73517;PMS5003;61766;60.318;25.044;2023-04-24T12:30:39;13;13;
73517;PMS5003;61766;60.318;25.044;2023-04-24T12:33:02;12;12;
73517;PMS5003;61766;60.318;25.044;2023-04-24T12:35:29;12;12;
73517;PMS5003;61766;60.318;25.044;2023-04-24T12:37:54;12;12;
73517;PMS5003;61766;60.318;25.044;2023-04-24T12:40:20;9;9;
73517;PMS5003;61766;60.318;25.044;2023-04-24T12:42:46;11;11;
73517;PMS5003;61766;60.318;25.044;2023-04-24T12:45:10;11;11;
73517;PMS5003;61766;60.318;25.044;2023-04-24T12:47:36;11;10;
73517;PMS5003;61766;60.318;25.044;2023-04-24T12:50:02;10;10;
73517;PMS5003;61766;60.318;25.044;2023-04-24T12:52:28;10;10;
73517;PMS5003;61766;60.318;25.044;2023-04-24T12:54:53;12;12;
73517;PMS5003;61766;60.318;25.044;2023-04-24T12:57:19;10;10;
73517;PMS5003;61766;60.318;25.044;2023-04-24T12:59:44;10;9;
73517;PMS5003;61766;60.318;25.044;2023-04-24T13:02:10;8;8;
73517;PMS5003;61766;60.318;25.044;2023-04-24T13:04:36;13;13;
73517;PMS5003;61766;60.318;25.044;2023-04-24T13:07:02;9;9;
73517;PMS5003;61766;60.318;25.044;2023-04-24T13:09:28;11;11;
73517;PMS5003;61766;60.318;25.044;2023-04-24T13:11:54;10;10;
73517;PMS5003;61766;60.318;25.044;2023-04-24T13:14:19;11;11;
73517;PMS5003;61766;60.318;25.044;2023-04-24T13:16:45;11;10;
73517;PMS5003;61766;60.318;25.044;2023-04-24T13:19:11;9;9;
73517;PMS5003;61766;60.318;25.044;2023-04-24T13:21:37;9;9;
73517;PMS5003;61766;60.318;25.044;2023-04-24T13:24:03;8;8;
73517;PMS5003;61766;60.318;25.044;2023-04-24T13:26:28;13;13;
73517;PMS5003;61766;60.318;25.044;2023-04-24T13:28:53;10;9;
73517;PMS5003;61766;60.318;25.044;2023-04-24T13:31:19;13;13;
73517;PMS5003;61766;60.318;25.044;2023-04-24T13:33:44;12;11;
73517;PMS5003;61766;60.318;25.044;2023-04-24T13:36:10;9;9;
73517;PMS5003;61766;60.318;25.044;2023-04-24T13:38:36;8;8;
73517;PMS5003;61766;60.318;25.044;2023-04-24T13:41:02;9;9;
73517;PMS5003;61766;60.318;25.044;2023-04-24T13:43:28;8;7;
73517;PMS5003;61766;60.318;25.044;2023-04-24T13:45:54;9;8;
73517;PMS5003;61766;60.318;25.044;2023-04-24T13:48:19;9;8;
73517;PMS5003;61766;60.318;25.044;2023-04-24T13:50:45;9;8;
73517;PMS5003;61766;60.318;25.044;2023-04-24T13:53:11;10;9;
73517;PMS5003;61766;60.318;25.044;2023-04-24T13:55:37;6;6;
73517;PMS5003;61766;60.318;25.044;2023-04-24T13:58:02;8;8;
73517;PMS5003;61766;60.318;25.044;2023-04-24T14:00:28;7;7;
73517;PMS5003;61766;60.318;25.044;2023-04-24T14:02:54;9;8;
73517;PMS5003;61766;60.318;25.044;2023-04-24T14:05:20;10;10;
73517;PMS5003;61766;60.318;25.044;2023-04-24T14:07:46;8;7;
73517;PMS5003;61766;60.318;25.044;2023-04-24T14:10:11;5;5;
73517;PMS5003;61766;60.318;25.044;2023-04-24T14:12:37;7;7;
73517;PMS5003;61766;60.318;25.044;2023-04-24T14:15:03;6;6;
73517;PMS5003;61766;60.318;25.044;2023-04-24T14:17:29;8;8;
73517;PMS5003;61766;60.318;25.044;2023-04-24T14:19:55;8;7;
73517;PMS5003;61766;60.318;25.044;2023-04-24T14:22:20;6;6;
73517;PMS5003;61766;60.318;25.044;2023-04-24T14:24:46;6;6;
73517;PMS5003;61766;60.318;25.044;2023-04-24T14:27:12;7;7;
73517;PMS5003;61766;60.318;25.044;2023-04-24T14:29:38;5;5;
73517;PMS5003;61766;60.318;25.044;2023-04-24T14:32:03;6;6;
73517;PMS5003;61766;60.318;25.044;2023-04-24T14:34:29;8;8;
73517;PMS5003;61766;60.318;25.044;2023-04-24T14:36:55;8;8;
73517;PMS5003;61766;60.318;25.044;2023-04-24T14:39:21;5;5;
73517;PMS5003;61766;60.318;25.044;2023-04-24T14:41:47;5;5;
73517;PMS5003;61766;60.318;25.044;2023-04-24T14:44:12;6;6;
73517;PMS5003;61766;60.318;25.044;2023-04-24T14:46:38;7;7;
73517;PMS5003;61766;60.318;25.044;2023-04-24T14:49:04;4;4;
73517;PMS5003;61766;60.318;25.044;2023-04-24T14:51:30;5;5;
73517;PMS5003;61766;60.318;25.044;2023-04-24T14:53:56;7;5;
73517;PMS5003;61766;60.318;25.044;2023-04-24T14:56:21;6;5;
73517;PMS5003;61766;60.318;25.044;2023-04-24T14:58:47;4;4;
73517;PMS5003;61766;60.318;25.044;2023-04-24T15:01:13;4;4;
73517;PMS5003;61766;60.318;25.044;2023-04-24T15:03:39;6;6;
73517;PMS5003;61766;60.318;25.044;2023-04-24T15:06:05;4;4;
73517;PMS5003;61766;60.318;25.044;2023-04-24T15:08:31;5;5;
73517;PMS5003;61766;60.318;25.044;2023-04-24T15:10:56;6;5;
73517;PMS5003;61766;60.318;25.044;2023-04-24T15:13:22;5;5;
73517;PMS5003;61766;60.318;25.044;2023-04-24T15:15:48;6;6;
73517;PMS5003;61766;60.318;25.044;2023-04-24T15:18:14;4;4;
73517;PMS5003;61766;60.318;25.044;2023-04-24T15:20:40;4;3;
73517;PMS5003;61766;60.318;25.044;2023-04-24T15:23:07;4;4;
73517;PMS5003;61766;60.318;25.044;2023-04-24T15:25:31;3;3;
73517;PMS5003;61766;60.318;25.044;2023-04-24T15:27:57;4;4;
73517;PMS5003;61766;60.318;25.044;2023-04-24T15:30:23;4;4;
73517;PMS5003;61766;60.318;25.044;2023-04-24T15:32:48;3;3;
73517;PMS5003;61766;60.318;25.044;2023-04-24T15:35:14;4;4;
73517;PMS5003;61766;60.318;25.044;2023-04-24T15:37:40;4;4;
73517;PMS5003;61766;60.318;25.044;2023-04-24T15:40:06;3;3;
73517;PMS5003;61766;60.318;25.044;2023-04-24T15:42:32;4;4;
73517;PMS5003;61766;60.318;25.044;2023-04-24T15:44:57;3;3;
73517;PMS5003;61766;60.318;25.044;2023-04-24T15:47:24;4;4;
73517;PMS5003;61766;60.318;25.044;2023-04-24T15:49:49;3;3;
73517;PMS5003;61766;60.318;25.044;2023-04-24T15:52:15;3;3;
73517;PMS5003;61766;60.318;25.044;2023-04-24T15:54:41;3;3;
73517;PMS5003;61766;60.318;25.044;2023-04-24T15:57:07;3;3;
73517;PMS5003;61766;60.318;25.044;2023-04-24T15:59:32;4;4;
73517;PMS5003;61766;60.318;25.044;2023-04-24T16:01:58;3;3;